Buffalo, WY (82834)

10:35 AM MST on February 24, 2017 (GMT -0700)
Buffalo | | Change Station
Active Advisory: Winter Storm Warning

Elev 4708 ft 44.34 °N, 106.70 °W | Updated 16 seconds ago

Overcast
Overcast
24.1 °F
Feels Like 24 °F
N
0.0
Wind Variable Wind from SE
Gusts 0.0 mph

Today
High -- | Low -- °F
--% Chance of Precip.
Yesterday
High -- | Low -- °F
Precip. -- in
Pressure 29.94 in
Visibility 8.0 miles
Clouds Mostly Cloudy 900 ft
Mostly Cloudy 3200 ft
Overcast 4900 ft
Windchill 24 °F
Dew Point 17 °F
Humidity 75%
Rainfall 0.00 in
Snow Depth Not available.
6:51 AM 5:48 PM
Waning Crescent, 4% visible
SPECI KBYG 241730Z AUTO 16011KT 8SM BKN009 BKN032 OVC049 M06/M09 A2994 RMK AO2 T10561089
Pressure 29.94 in
Visibility 8.0 miles
Clouds Mostly Cloudy 900 ft
Mostly Cloudy 3200 ft
Overcast 4900 ft
Windchill 24 °F
Dew Point 17 °F
Humidity 75%
Rainfall 0.00 in
Snow Depth Not available.
6:51 AM 5:48 PM
Waning Crescent, 4% visible
SPECI KBYG 241730Z AUTO 16011KT 8SM BKN009 BKN032 OVC049 M06/M09 A2994 RMK AO2 T10561089

Get Your Daily Forecast Email!

Thanks for signing up!

Be on the lookout for a verification email in your inbox.

You'll start receiving the daily forecast at 8 AM.

×

10-Day Weather Forecast

Almanac

Astronomy

Feb. 24, 2017 Rise Set
Actual Time
Civil Twilight
Nautical Twilight
Astronomical Twilight
Moon
Length of Visible Light
Length of Day
Tomorrow will be .
, % of the Moon is Illuminated

Today's Extremes

State Highs State Lows

Community

WunderPhotos

Upload Photos

1,962,540 photos uploaded!

WunderBlog® & News

Nearby

Air Quality

  Air Quality AQ Index Pollutant
Not available.

Snow Depth

Station Depth Elevation

Earthquake Activity

City Distance Mag. Time & Date
Minimum magnitude displayed is 2.5.

Coastal Water Temperatures

Place Temperature

Stations

Nearby Weather Stations

Station Location Temp. Windchill Dew Point Humidity Wind Precip. Elev Updated Type
                   

Watches & Warnings

Winter Storm Warning
Issued: 2:10 AM MST Feb. 24, 2017 – National Weather Service

... Winter Storm Warning remains in effect until 11 am MST
Friday...

* timing... periods of light snow will continue before tapering off
later this morning.

* Snowfall accumulation... around 3 inches of snow has accumulated
in the Buffalo area. An additional 1 to 3 inches of snow is
expected through this morning.

* Main impact... roads will be slick and snow covered with
limited visibility at times.

Precautionary/preparedness actions...

A Winter Storm Warning means significant amounts of snow, and or
blowing snow are expected or occurring. This could make travel
very hazardous or impossible. If you must travel keep some food,
water, and an extra flashlight in your vehicle in case of an
emergency. Check the latest Road conditions at wyoroad.Info or by
dialing 5 1 1.